sensor_id;sensor_type;location;lat;lon;timestamp;P1;durP1;ratioP1;P2;durP2;ratioP2
41903;SDS011;27586;51.124;4.182;2023-07-02T00:01:11;20.80;;;14.25;;
41903;SDS011;27586;51.124;4.182;2023-07-02T00:03:37;22.77;;;15.45;;
41903;SDS011;27586;51.124;4.182;2023-07-02T00:06:04;22.10;;;14.63;;
41903;SDS011;27586;51.124;4.182;2023-07-02T00:08:30;23.83;;;15.70;;
41903;SDS011;27586;51.124;4.182;2023-07-02T00:10:55;25.85;;;15.93;;
41903;SDS011;27586;51.124;4.182;2023-07-02T00:13:21;23.95;;;15.90;;
41903;SDS011;27586;51.124;4.182;2023-07-02T00:15:47;22.85;;;14.27;;
41903;SDS011;27586;51.124;4.182;2023-07-02T00:18:12;22.77;;;15.70;;
41903;SDS011;27586;51.124;4.182;2023-07-02T00:20:42;25.25;;;14.90;;
41903;SDS011;27586;51.124;4.182;2023-07-02T00:23:08;22.50;;;15.25;;
41903;SDS011;27586;51.124;4.182;2023-07-02T00:25:35;26.23;;;16.90;;
41903;SDS011;27586;51.124;4.182;2023-07-02T00:28:01;25.85;;;16.55;;
41903;SDS011;27586;51.124;4.182;2023-07-02T00:30:27;25.67;;;16.30;;
41903;SDS011;27586;51.124;4.182;2023-07-02T00:32:53;26.40;;;16.30;;
41903;SDS011;27586;51.124;4.182;2023-07-02T00:35:18;27.30;;;16.27;;
41903;SDS011;27586;51.124;4.182;2023-07-02T00:37:44;27.67;;;16.83;;
41903;SDS011;27586;51.124;4.182;2023-07-02T00:40:09;23.10;;;16.80;;
41903;SDS011;27586;51.124;4.182;2023-07-02T00:42:35;24.55;;;15.50;;
41903;SDS011;27586;51.124;4.182;2023-07-02T00:45:01;24.88;;;17.25;;
41903;SDS011;27586;51.124;4.182;2023-07-02T00:47:28;25.02;;;16.70;;
41903;SDS011;27586;51.124;4.182;2023-07-02T00:49:58;25.75;;;17.10;;
41903;SDS011;27586;51.124;4.182;2023-07-02T00:52:24;29.35;;;17.20;;
41903;SDS011;27586;51.124;4.182;2023-07-02T00:54:51;27.58;;;17.55;;
41903;SDS011;27586;51.124;4.182;2023-07-02T00:57:16;24.83;;;17.35;;
41903;SDS011;27586;51.124;4.182;2023-07-02T00:59:42;26.75;;;17.23;;
41903;SDS011;27586;51.124;4.182;2023-07-02T01:02:08;26.02;;;17.25;;
41903;SDS011;27586;51.124;4.182;2023-07-02T01:04:33;29.95;;;17.77;;
41903;SDS011;27586;51.124;4.182;2023-07-02T01:06:59;27.67;;;16.65;;
41903;SDS011;27586;51.124;4.182;2023-07-02T01:09:25;24.50;;;18.05;;
41903;SDS011;27586;51.124;4.182;2023-07-02T01:11:59;26.65;;;18.20;;
41903;SDS011;27586;51.124;4.182;2023-07-02T01:14:29;30.85;;;18.40;;
41903;SDS011;27586;51.124;4.182;2023-07-02T01:16:59;31.50;;;18.45;;
41903;SDS011;27586;51.124;4.182;2023-07-02T01:22:05;24.75;;;17.63;;
41903;SDS011;27586;51.124;4.182;2023-07-02T01:24:31;26.17;;;18.05;;
41903;SDS011;27586;51.124;4.182;2023-07-02T01:26:58;28.73;;;18.60;;
41903;SDS011;27586;51.124;4.182;2023-07-02T01:29:26;29.08;;;18.17;;
41903;SDS011;27586;51.124;4.182;2023-07-02T01:31:54;27.83;;;18.20;;
41903;SDS011;27586;51.124;4.182;2023-07-02T01:34:20;31.13;;;18.95;;
41903;SDS011;27586;51.124;4.182;2023-07-02T01:36:46;26.38;;;18.95;;
41903;SDS011;27586;51.124;4.182;2023-07-02T01:39:12;30.10;;;18.45;;
41903;SDS011;27586;51.124;4.182;2023-07-02T01:41:42;26.40;;;17.92;;
41903;SDS011;27586;51.124;4.182;2023-07-02T01:44:10;32.25;;;19.33;;
41903;SDS011;27586;51.124;4.182;2023-07-02T01:46:36;31.25;;;18.95;;
41903;SDS011;27586;51.124;4.182;2023-07-02T01:49:02;29.80;;;18.60;;
41903;SDS011;27586;51.124;4.182;2023-07-02T01:51:28;27.45;;;18.35;;
41903;SDS011;27586;51.124;4.182;2023-07-02T01:53:53;27.30;;;18.58;;
41903;SDS011;27586;51.124;4.182;2023-07-02T01:56:19;29.23;;;18.63;;
41903;SDS011;27586;51.124;4.182;2023-07-02T01:58:44;32.55;;;18.98;;
41903;SDS011;27586;51.124;4.182;2023-07-02T02:01:10;28.75;;;19.27;;
41903;SDS011;27586;51.124;4.182;2023-07-02T02:03:35;28.27;;;19.52;;
41903;SDS011;27586;51.124;4.182;2023-07-02T02:06:01;30.25;;;18.70;;
41903;SDS011;27586;51.124;4.182;2023-07-02T02:08:27;31.38;;;20.20;;
41903;SDS011;27586;51.124;4.182;2023-07-02T02:10:52;29.08;;;18.52;;
41903;SDS011;27586;51.124;4.182;2023-07-02T02:13:18;30.98;;;19.58;;
41903;SDS011;27586;51.124;4.182;2023-07-02T02:15:43;28.38;;;18.70;;
41903;SDS011;27586;51.124;4.182;2023-07-02T02:18:09;29.50;;;19.52;;
41903;SDS011;27586;51.124;4.182;2023-07-02T02:20:35;28.35;;;18.95;;
41903;SDS011;27586;51.124;4.182;2023-07-02T02:23:00;28.40;;;19.40;;
41903;SDS011;27586;51.124;4.182;2023-07-02T02:25:27;31.45;;;19.85;;
41903;SDS011;27586;51.124;4.182;2023-07-02T02:27:52;28.27;;;19.38;;
41903;SDS011;27586;51.124;4.182;2023-07-02T02:30:18;28.17;;;19.25;;
41903;SDS011;27586;51.124;4.182;2023-07-02T02:32:44;32.70;;;19.27;;
41903;SDS011;27586;51.124;4.182;2023-07-02T02:35:09;29.35;;;19.30;;
41903;SDS011;27586;51.124;4.182;2023-07-02T02:37:36;31.38;;;19.77;;
41903;SDS011;27586;51.124;4.182;2023-07-02T02:40:03;31.70;;;19.90;;
41903;SDS011;27586;51.124;4.182;2023-07-02T02:42:30;31.98;;;20.02;;
41903;SDS011;27586;51.124;4.182;2023-07-02T02:44:56;30.40;;;19.30;;
41903;SDS011;27586;51.124;4.182;2023-07-02T02:47:22;31.40;;;20.38;;
41903;SDS011;27586;51.124;4.182;2023-07-02T02:49:47;28.60;;;20.30;;
41903;SDS011;27586;51.124;4.182;2023-07-02T02:52:13;34.30;;;19.92;;
41903;SDS011;27586;51.124;4.182;2023-07-02T02:54:39;30.98;;;19.58;;
41903;SDS011;27586;51.124;4.182;2023-07-02T02:57:05;30.75;;;19.73;;
41903;SDS011;27586;51.124;4.182;2023-07-02T02:59:31;29.48;;;19.55;;
41903;SDS011;27586;51.124;4.182;2023-07-02T03:01:56;32.08;;;20.30;;
41903;SDS011;27586;51.124;4.182;2023-07-02T03:04:22;28.70;;;19.65;;
41903;SDS011;27586;51.124;4.182;2023-07-02T03:06:51;27.95;;;18.88;;
41903;SDS011;27586;51.124;4.182;2023-07-02T03:09:18;30.95;;;19.60;;
41903;SDS011;27586;51.124;4.182;2023-07-02T03:11:44;32.20;;;21.50;;
41903;SDS011;27586;51.124;4.182;2023-07-02T03:14:11;31.40;;;20.17;;
41903;SDS011;27586;51.124;4.182;2023-07-02T03:16:36;30.58;;;20.10;;
41903;SDS011;27586;51.124;4.182;2023-07-02T03:19:02;30.52;;;20.23;;
41903;SDS011;27586;51.124;4.182;2023-07-02T03:21:28;28.13;;;20.15;;
41903;SDS011;27586;51.124;4.182;2023-07-02T03:23:55;32.95;;;20.80;;
41903;SDS011;27586;51.124;4.182;2023-07-02T03:26:20;33.70;;;21.23;;
41903;SDS011;27586;51.124;4.182;2023-07-02T03:28:47;34.75;;;20.80;;
41903;SDS011;27586;51.124;4.182;2023-07-02T03:31:13;30.30;;;20.00;;
41903;SDS011;27586;51.124;4.182;2023-07-02T03:33:39;34.60;;;21.02;;
41903;SDS011;27586;51.124;4.182;2023-07-02T03:36:04;32.55;;;20.88;;
41903;SDS011;27586;51.124;4.182;2023-07-02T03:38:30;34.88;;;21.55;;
41903;SDS011;27586;51.124;4.182;2023-07-02T03:40:56;30.92;;;20.13;;
41903;SDS011;27586;51.124;4.182;2023-07-02T03:43:21;31.85;;;20.75;;
41903;SDS011;27586;51.124;4.182;2023-07-02T03:45:47;30.30;;;20.52;;
41903;SDS011;27586;51.124;4.182;2023-07-02T03:48:13;36.53;;;22.70;;
41903;SDS011;27586;51.124;4.182;2023-07-02T03:50:38;32.10;;;19.77;;
41903;SDS011;27586;51.124;4.182;2023-07-02T03:53:04;31.70;;;19.88;;
41903;SDS011;27586;51.124;4.182;2023-07-02T03:55:30;36.08;;;20.70;;
41903;SDS011;27586;51.124;4.182;2023-07-02T03:57:56;33.25;;;20.60;;
41903;SDS011;27586;51.124;4.182;2023-07-02T04:00:21;28.45;;;19.05;;
41903;SDS011;27586;51.124;4.182;2023-07-02T04:02:47;34.10;;;20.52;;
41903;SDS011;27586;51.124;4.182;2023-07-02T04:05:13;36.25;;;20.55;;
41903;SDS011;27586;51.124;4.182;2023-07-02T04:07:38;33.78;;;20.70;;
41903;SDS011;27586;51.124;4.182;2023-07-02T04:10:07;31.17;;;20.55;;
41903;SDS011;27586;51.124;4.182;2023-07-02T04:12:33;35.70;;;21.02;;
41903;SDS011;27586;51.124;4.182;2023-07-02T04:14:58;31.75;;;21.08;;
41903;SDS011;27586;51.124;4.182;2023-07-02T04:17:24;34.00;;;21.77;;
41903;SDS011;27586;51.124;4.182;2023-07-02T04:19:50;33.92;;;20.90;;
41903;SDS011;27586;51.124;4.182;2023-07-02T04:22:15;33.53;;;20.42;;
41903;SDS011;27586;51.124;4.182;2023-07-02T04:24:41;28.15;;;19.88;;
41903;SDS011;27586;51.124;4.182;2023-07-02T04:27:06;35.10;;;20.23;;
41903;SDS011;27586;51.124;4.182;2023-07-02T04:29:32;30.00;;;19.55;;
41903;SDS011;27586;51.124;4.182;2023-07-02T04:31:58;34.38;;;20.63;;
41903;SDS011;27586;51.124;4.182;2023-07-02T04:34:23;34.38;;;20.73;;
41903;SDS011;27586;51.124;4.182;2023-07-02T04:36:49;31.98;;;20.30;;
41903;SDS011;27586;51.124;4.182;2023-07-02T04:39:15;30.45;;;20.25;;
41903;SDS011;27586;51.124;4.182;2023-07-02T04:41:40;31.15;;;20.35;;
41903;SDS011;27586;51.124;4.182;2023-07-02T04:44:06;36.80;;;21.48;;
41903;SDS011;27586;51.124;4.182;2023-07-02T04:46:31;37.40;;;21.27;;
41903;SDS011;27586;51.124;4.182;2023-07-02T04:48:57;30.77;;;19.83;;
41903;SDS011;27586;51.124;4.182;2023-07-02T04:51:23;34.00;;;21.08;;
41903;SDS011;27586;51.124;4.182;2023-07-02T04:53:48;34.20;;;19.98;;
41903;SDS011;27586;51.124;4.182;2023-07-02T04:56:14;30.38;;;20.27;;
41903;SDS011;27586;51.124;4.182;2023-07-02T04:58:39;32.45;;;20.70;;
41903;SDS011;27586;51.124;4.182;2023-07-02T05:01:05;39.83;;;21.42;;
41903;SDS011;27586;51.124;4.182;2023-07-02T05:03:31;32.92;;;20.77;;
41903;SDS011;27586;51.124;4.182;2023-07-02T05:05:56;31.45;;;20.95;;
41903;SDS011;27586;51.124;4.182;2023-07-02T05:08:22;31.60;;;20.45;;
41903;SDS011;27586;51.124;4.182;2023-07-02T05:10:47;33.05;;;20.17;;
41903;SDS011;27586;51.124;4.182;2023-07-02T05:13:13;31.30;;;20.17;;
41903;SDS011;27586;51.124;4.182;2023-07-02T05:15:42;31.42;;;20.35;;
41903;SDS011;27586;51.124;4.182;2023-07-02T05:18:08;31.52;;;20.73;;
41903;SDS011;27586;51.124;4.182;2023-07-02T05:20:33;29.63;;;21.35;;
41903;SDS011;27586;51.124;4.182;2023-07-02T05:22:59;31.15;;;20.73;;
41903;SDS011;27586;51.124;4.182;2023-07-02T05:25:28;35.83;;;21.45;;
41903;SDS011;27586;51.124;4.182;2023-07-02T05:27:53;32.60;;;20.95;;
41903;SDS011;27586;51.124;4.182;2023-07-02T05:30:19;35.20;;;21.35;;
41903;SDS011;27586;51.124;4.182;2023-07-02T05:32:45;34.13;;;21.70;;
41903;SDS011;27586;51.124;4.182;2023-07-02T05:35:10;28.42;;;20.85;;
41903;SDS011;27586;51.124;4.182;2023-07-02T05:37:36;33.67;;;22.80;;
41903;SDS011;27586;51.124;4.182;2023-07-02T05:40:02;34.33;;;21.55;;
41903;SDS011;27586;51.124;4.182;2023-07-02T05:42:28;32.35;;;21.00;;
41903;SDS011;27586;51.124;4.182;2023-07-02T05:44:53;34.60;;;21.77;;
41903;SDS011;27586;51.124;4.182;2023-07-02T05:47:19;32.85;;;21.40;;
41903;SDS011;27586;51.124;4.182;2023-07-02T05:49:44;33.63;;;21.00;;
41903;SDS011;27586;51.124;4.182;2023-07-02T05:52:10;32.97;;;20.92;;
41903;SDS011;27586;51.124;4.182;2023-07-02T05:54:38;33.95;;;21.90;;
41903;SDS011;27586;51.124;4.182;2023-07-02T05:57:05;33.95;;;21.05;;
41903;SDS011;27586;51.124;4.182;2023-07-02T05:59:31;31.08;;;19.98;;
41903;SDS011;27586;51.124;4.182;2023-07-02T06:01:56;28.75;;;19.88;;
41903;SDS011;27586;51.124;4.182;2023-07-02T06:04:22;34.92;;;20.05;;
41903;SDS011;27586;51.124;4.182;2023-07-02T06:06:48;30.15;;;19.42;;
41903;SDS011;27586;51.124;4.182;2023-07-02T06:09:13;29.15;;;18.63;;
41903;SDS011;27586;51.124;4.182;2023-07-02T06:11:39;28.95;;;18.05;;
41903;SDS011;27586;51.124;4.182;2023-07-02T06:14:05;28.25;;;17.50;;
41903;SDS011;27586;51.124;4.182;2023-07-02T06:16:30;23.27;;;15.82;;
41903;SDS011;27586;51.124;4.182;2023-07-02T06:18:56;24.30;;;15.93;;
41903;SDS011;27586;51.124;4.182;2023-07-02T06:21:22;23.50;;;14.35;;
41903;SDS011;27586;51.124;4.182;2023-07-02T06:23:48;23.05;;;13.75;;
41903;SDS011;27586;51.124;4.182;2023-07-02T06:26:14;17.77;;;12.27;;
41903;SDS011;27586;51.124;4.182;2023-07-02T06:28:39;22.23;;;11.52;;
41903;SDS011;27586;51.124;4.182;2023-07-02T06:31:05;17.65;;;10.50;;
41903;SDS011;27586;51.124;4.182;2023-07-02T06:33:30;15.65;;;9.70;;
41903;SDS011;27586;51.124;4.182;2023-07-02T06:35:56;17.08;;;10.07;;
41903;SDS011;27586;51.124;4.182;2023-07-02T06:38:22;16.27;;;9.13;;
41903;SDS011;27586;51.124;4.182;2023-07-02T06:40:48;14.30;;;8.32;;
41903;SDS011;27586;51.124;4.182;2023-07-02T06:43:13;14.88;;;7.65;;
41903;SDS011;27586;51.124;4.182;2023-07-02T06:45:39;14.98;;;8.18;;
41903;SDS011;27586;51.124;4.182;2023-07-02T06:48:05;14.98;;;7.53;;
41903;SDS011;27586;51.124;4.182;2023-07-02T06:50:30;12.35;;;6.95;;
41903;SDS011;27586;51.124;4.182;2023-07-02T06:52:56;13.52;;;7.57;;
41903;SDS011;27586;51.124;4.182;2023-07-02T06:55:22;11.93;;;6.57;;
41903;SDS011;27586;51.124;4.182;2023-07-02T06:57:48;9.43;;;6.50;;
41903;SDS011;27586;51.124;4.182;2023-07-02T07:00:14;12.48;;;5.93;;
41903;SDS011;27586;51.124;4.182;2023-07-02T07:02:40;10.32;;;6.22;;
41903;SDS011;27586;51.124;4.182;2023-07-02T07:05:06;11.30;;;6.57;;
41903;SDS011;27586;51.124;4.182;2023-07-02T07:07:33;10.93;;;6.22;;
41903;SDS011;27586;51.124;4.182;2023-07-02T07:09:58;11.88;;;6.28;;
41903;SDS011;27586;51.124;4.182;2023-07-02T07:12:24;11.95;;;5.97;;
41903;SDS011;27586;51.124;4.182;2023-07-02T07:14:49;9.60;;;5.75;;
41903;SDS011;27586;51.124;4.182;2023-07-02T07:17:15;12.82;;;5.70;;
41903;SDS011;27586;51.124;4.182;2023-07-02T07:19:41;9.35;;;5.10;;
41903;SDS011;27586;51.124;4.182;2023-07-02T07:22:06;12.25;;;5.85;;
41903;SDS011;27586;51.124;4.182;2023-07-02T07:24:32;8.20;;;5.45;;
41903;SDS011;27586;51.124;4.182;2023-07-02T07:26:58;10.95;;;5.60;;
41903;SDS011;27586;51.124;4.182;2023-07-02T07:29:23;8.23;;;5.22;;
41903;SDS011;27586;51.124;4.182;2023-07-02T07:31:49;9.30;;;5.32;;
41903;SDS011;27586;51.124;4.182;2023-07-02T07:34:15;11.77;;;5.45;;
41903;SDS011;27586;51.124;4.182;2023-07-02T07:36:41;8.80;;;5.15;;
41903;SDS011;27586;51.124;4.182;2023-07-02T07:39:06;8.82;;;5.25;;
41903;SDS011;27586;51.124;4.182;2023-07-02T07:41:32;10.38;;;5.50;;
41903;SDS011;27586;51.124;4.182;2023-07-02T07:43:58;9.07;;;5.07;;
41903;SDS011;27586;51.124;4.182;2023-07-02T07:46:25;9.25;;;4.93;;
41903;SDS011;27586;51.124;4.182;2023-07-02T07:48:50;9.35;;;5.07;;
41903;SDS011;27586;51.124;4.182;2023-07-02T07:51:16;9.57;;;5.05;;
41903;SDS011;27586;51.124;4.182;2023-07-02T07:53:42;9.35;;;4.82;;
41903;SDS011;27586;51.124;4.182;2023-07-02T07:56:08;11.35;;;5.10;;
41903;SDS011;27586;51.124;4.182;2023-07-02T07:58:33;11.40;;;5.55;;
41903;SDS011;27586;51.124;4.182;2023-07-02T08:00:59;9.80;;;5.30;;
41903;SDS011;27586;51.124;4.182;2023-07-02T08:03:24;10.35;;;5.35;;
41903;SDS011;27586;51.124;4.182;2023-07-02T08:05:50;9.90;;;4.97;;
41903;SDS011;27586;51.124;4.182;2023-07-02T08:08:16;11.43;;;5.03;;
41903;SDS011;27586;51.124;4.182;2023-07-02T08:10:41;9.90;;;5.35;;
41903;SDS011;27586;51.124;4.182;2023-07-02T08:13:07;10.40;;;5.22;;
41903;SDS011;27586;51.124;4.182;2023-07-02T08:15:33;9.90;;;5.38;;
41903;SDS011;27586;51.124;4.182;2023-07-02T08:17:59;10.38;;;5.05;;
41903;SDS011;27586;51.124;4.182;2023-07-02T08:20:24;10.57;;;5.55;;
41903;SDS011;27586;51.124;4.182;2023-07-02T08:22:50;9.93;;;5.03;;
41903;SDS011;27586;51.124;4.182;2023-07-02T08:25:16;9.75;;;5.72;;
41903;SDS011;27586;51.124;4.182;2023-07-02T08:27:43;9.77;;;5.55;;
41903;SDS011;27586;51.124;4.182;2023-07-02T08:30:09;10.95;;;5.63;;
41903;SDS011;27586;51.124;4.182;2023-07-02T08:32:35;9.88;;;5.47;;
41903;SDS011;27586;51.124;4.182;2023-07-02T08:35:01;15.52;;;5.60;;
41903;SDS011;27586;51.124;4.182;2023-07-02T08:37:27;12.15;;;5.57;;
41903;SDS011;27586;51.124;4.182;2023-07-02T08:39:52;11.88;;;5.78;;
41903;SDS011;27586;51.124;4.182;2023-07-02T08:42:18;12.70;;;6.15;;
41903;SDS011;27586;51.124;4.182;2023-07-02T08:44:47;10.90;;;6.47;;
41903;SDS011;27586;51.124;4.182;2023-07-02T08:47:18;12.13;;;6.43;;
41903;SDS011;27586;51.124;4.182;2023-07-02T08:49:43;13.48;;;7.10;;
41903;SDS011;27586;51.124;4.182;2023-07-02T08:52:09;12.00;;;6.53;;
41903;SDS011;27586;51.124;4.182;2023-07-02T08:54:35;13.88;;;6.57;;
41903;SDS011;27586;51.124;4.182;2023-07-02T08:57:01;11.93;;;6.78;;
41903;SDS011;27586;51.124;4.182;2023-07-02T08:59:30;13.35;;;7.60;;
41903;SDS011;27586;51.124;4.182;2023-07-02T09:01:56;15.73;;;8.68;;
41903;SDS011;27586;51.124;4.182;2023-07-02T09:04:22;13.30;;;8.20;;
41903;SDS011;27586;51.124;4.182;2023-07-02T09:06:50;14.18;;;8.45;;
41903;SDS011;27586;51.124;4.182;2023-07-02T09:09:28;16.63;;;8.68;;
41903;SDS011;27586;51.124;4.182;2023-07-02T09:11:54;12.30;;;8.13;;
41903;SDS011;27586;51.124;4.182;2023-07-02T09:14:29;14.05;;;8.65;;
41903;SDS011;27586;51.124;4.182;2023-07-02T09:19:27;17.30;;;8.93;;
41903;SDS011;27586;51.124;4.182;2023-07-02T09:21:53;15.80;;;9.18;;
41903;SDS011;27586;51.124;4.182;2023-07-02T09:24:23;17.60;;;9.43;;
41903;SDS011;27586;51.124;4.182;2023-07-02T09:26:50;17.27;;;10.20;;
41903;SDS011;27586;51.124;4.182;2023-07-02T09:29:18;18.48;;;10.50;;
41903;SDS011;27586;51.124;4.182;2023-07-02T09:31:51;17.33;;;9.57;;
41903;SDS011;27586;51.124;4.182;2023-07-02T09:34:17;15.23;;;9.50;;
41903;SDS011;27586;51.124;4.182;2023-07-02T09:36:43;14.55;;;8.85;;
41903;SDS011;27586;51.124;4.182;2023-07-02T09:39:11;16.77;;;9.13;;
41903;SDS011;27586;51.124;4.182;2023-07-02T09:41:44;15.25;;;8.02;;
41903;SDS011;27586;51.124;4.182;2023-07-02T09:44:14;12.15;;;7.63;;
41903;SDS011;27586;51.124;4.182;2023-07-02T09:46:41;12.90;;;7.55;;
41903;SDS011;27586;51.124;4.182;2023-07-02T09:49:14;16.90;;;8.07;;
41903;SDS011;27586;51.124;4.182;2023-07-02T09:51:41;14.52;;;8.05;;
41903;SDS011;27586;51.124;4.182;2023-07-02T09:54:08;13.82;;;7.80;;
41903;SDS011;27586;51.124;4.182;2023-07-02T09:56:35;17.52;;;8.27;;
41903;SDS011;27586;51.124;4.182;2023-07-02T09:59:01;17.15;;;8.23;;
41903;SDS011;27586;51.124;4.182;2023-07-02T10:01:26;15.32;;;7.97;;
41903;SDS011;27586;51.124;4.182;2023-07-02T10:03:52;13.32;;;7.07;;
41903;SDS011;27586;51.124;4.182;2023-07-02T10:06:18;11.60;;;7.30;;
41903;SDS011;27586;51.124;4.182;2023-07-02T10:08:56;16.00;;;8.35;;
41903;SDS011;27586;51.124;4.182;2023-07-02T10:11:21;13.93;;;7.63;;
41903;SDS011;27586;51.124;4.182;2023-07-02T10:14:00;13.00;;;7.25;;
41903;SDS011;27586;51.124;4.182;2023-07-02T10:16:25;12.00;;;7.00;;
41903;SDS011;27586;51.124;4.182;2023-07-02T10:18:52;16.08;;;8.00;;
41903;SDS011;27586;51.124;4.182;2023-07-02T10:21:19;11.77;;;7.40;;
41903;SDS011;27586;51.124;4.182;2023-07-02T10:23:45;13.40;;;6.95;;
41903;SDS011;27586;51.124;4.182;2023-07-02T10:26:14;14.73;;;7.28;;
41903;SDS011;27586;51.124;4.182;2023-07-02T10:28:41;14.90;;;7.00;;
41903;SDS011;27586;51.124;4.182;2023-07-02T10:31:18;12.82;;;6.80;;
41903;SDS011;27586;51.124;4.182;2023-07-02T10:33:45;14.98;;;7.00;;
41903;SDS011;27586;51.124;4.182;2023-07-02T10:36:18;11.05;;;5.65;;
41903;SDS011;27586;51.124;4.182;2023-07-02T10:38:48;11.48;;;6.50;;
41903;SDS011;27586;51.124;4.182;2023-07-02T10:41:27;10.40;;;5.93;;
41903;SDS011;27586;51.124;4.182;2023-07-02T10:43:54;11.48;;;6.45;;
41903;SDS011;27586;51.124;4.182;2023-07-02T10:46:33;11.68;;;5.75;;
41903;SDS011;27586;51.124;4.182;2023-07-02T10:48:59;12.38;;;5.97;;
41903;SDS011;27586;51.124;4.182;2023-07-02T10:51:25;12.15;;;6.50;;
41903;SDS011;27586;51.124;4.182;2023-07-02T10:53:57;8.52;;;6.00;;
41903;SDS011;27586;51.124;4.182;2023-07-02T10:56:27;11.75;;;5.93;;
41903;SDS011;27586;51.124;4.182;2023-07-02T10:58:54;10.25;;;6.00;;
41903;SDS011;27586;51.124;4.182;2023-07-02T11:01:26;9.82;;;5.55;;
41903;SDS011;27586;51.124;4.182;2023-07-02T11:03:59;10.30;;;5.85;;
41903;SDS011;27586;51.124;4.182;2023-07-02T11:06:32;9.20;;;5.60;;
41903;SDS011;27586;51.124;4.182;2023-07-02T11:09:00;9.30;;;5.53;;
41903;SDS011;27586;51.124;4.182;2023-07-02T11:11:26;12.30;;;5.65;;
41903;SDS011;27586;51.124;4.182;2023-07-02T11:13:52;12.18;;;5.95;;
41903;SDS011;27586;51.124;4.182;2023-07-02T11:16:25;11.93;;;5.18;;
41903;SDS011;27586;51.124;4.182;2023-07-02T11:19:05;11.38;;;6.00;;
41903;SDS011;27586;51.124;4.182;2023-07-02T11:21:35;11.13;;;5.75;;
41903;SDS011;27586;51.124;4.182;2023-07-02T11:24:05;8.65;;;5.28;;
41903;SDS011;27586;51.124;4.182;2023-07-02T11:26:39;8.80;;;5.10;;
41903;SDS011;27586;51.124;4.182;2023-07-02T11:29:11;13.25;;;5.43;;
41903;SDS011;27586;51.124;4.182;2023-07-02T11:31:37;9.65;;;5.70;;
41903;SDS011;27586;51.124;4.182;2023-07-02T11:34:16;10.35;;;6.03;;
41903;SDS011;27586;51.124;4.182;2023-07-02T11:36:43;9.13;;;5.00;;
41903;SDS011;27586;51.124;4.182;2023-07-02T11:39:08;11.73;;;5.63;;
41903;SDS011;27586;51.124;4.182;2023-07-02T11:41:37;13.05;;;5.90;;
41903;SDS011;27586;51.124;4.182;2023-07-02T11:44:04;11.07;;;5.45;;
41903;SDS011;27586;51.124;4.182;2023-07-02T11:46:30;11.50;;;6.00;;
41903;SDS011;27586;51.124;4.182;2023-07-02T11:48:55;10.32;;;5.22;;
41903;SDS011;27586;51.124;4.182;2023-07-02T11:51:21;9.38;;;5.65;;
41903;SDS011;27586;51.124;4.182;2023-07-02T11:53:47;11.07;;;5.45;;
41903;SDS011;27586;51.124;4.182;2023-07-02T11:56:13;10.20;;;5.38;;
41903;SDS011;27586;51.124;4.182;2023-07-02T11:58:41;11.90;;;5.65;;
41903;SDS011;27586;51.124;4.182;2023-07-02T12:01:08;11.20;;;5.55;;
41903;SDS011;27586;51.124;4.182;2023-07-02T12:03:33;9.75;;;5.50;;
41903;SDS011;27586;51.124;4.182;2023-07-02T12:05:59;11.35;;;5.88;;
41903;SDS011;27586;51.124;4.182;2023-07-02T12:08:25;10.52;;;5.20;;
41903;SDS011;27586;51.124;4.182;2023-07-02T12:10:50;9.93;;;5.35;;
41903;SDS011;27586;51.124;4.182;2023-07-02T12:13:16;12.82;;;5.38;;
41903;SDS011;27586;51.124;4.182;2023-07-02T12:15:42;11.57;;;5.80;;
41903;SDS011;27586;51.124;4.182;2023-07-02T12:18:08;10.05;;;5.30;;
41903;SDS011;27586;51.124;4.182;2023-07-02T12:20:34;11.95;;;5.25;;
41903;SDS011;27586;51.124;4.182;2023-07-02T12:23:00;10.98;;;5.53;;
41903;SDS011;27586;51.124;4.182;2023-07-02T12:25:26;10.20;;;5.60;;
41903;SDS011;27586;51.124;4.182;2023-07-02T12:27:52;11.00;;;5.20;;
41903;SDS011;27586;51.124;4.182;2023-07-02T12:30:18;10.95;;;5.65;;
41903;SDS011;27586;51.124;4.182;2023-07-02T12:32:44;10.10;;;5.68;;
41903;SDS011;27586;51.124;4.182;2023-07-02T12:35:10;10.45;;;5.50;;
41903;SDS011;27586;51.124;4.182;2023-07-02T12:37:46;9.23;;;5.30;;
41903;SDS011;27586;51.124;4.182;2023-07-02T12:40:17;10.27;;;5.97;;
41903;SDS011;27586;51.124;4.182;2023-07-02T12:42:44;12.63;;;6.15;;
41903;SDS011;27586;51.124;4.182;2023-07-02T12:45:11;11.88;;;6.25;;
41903;SDS011;27586;51.124;4.182;2023-07-02T12:47:38;12.20;;;6.22;;
41903;SDS011;27586;51.124;4.182;2023-07-02T12:50:04;12.38;;;6.00;;
41903;SDS011;27586;51.124;4.182;2023-07-02T12:52:31;12.88;;;5.75;;
41903;SDS011;27586;51.124;4.182;2023-07-02T12:54:57;10.25;;;5.95;;
41903;SDS011;27586;51.124;4.182;2023-07-02T12:57:22;9.65;;;6.32;;
41903;SDS011;27586;51.124;4.182;2023-07-02T12:59:48;11.48;;;6.00;;
41903;SDS011;27586;51.124;4.182;2023-07-02T13:02:14;13.45;;;6.20;;
41903;SDS011;27586;51.124;4.182;2023-07-02T13:04:39;14.45;;;6.75;;
41903;SDS011;27586;51.124;4.182;2023-07-02T13:07:05;13.00;;;6.00;;
41903;SDS011;27586;51.124;4.182;2023-07-02T13:09:31;13.73;;;6.72;;
41903;SDS011;27586;51.124;4.182;2023-07-02T13:11:57;12.93;;;6.18;;
41903;SDS011;27586;51.124;4.182;2023-07-02T13:14:22;11.55;;;6.10;;
41903;SDS011;27586;51.124;4.182;2023-07-02T13:16:48;9.45;;;5.53;;
41903;SDS011;27586;51.124;4.182;2023-07-02T13:19:14;10.15;;;5.90;;
41903;SDS011;27586;51.124;4.182;2023-07-02T13:21:41;10.45;;;5.90;;
41903;SDS011;27586;51.124;4.182;2023-07-02T13:24:06;13.45;;;5.97;;
41903;SDS011;27586;51.124;4.182;2023-07-02T13:26:32;12.05;;;5.95;;
41903;SDS011;27586;51.124;4.182;2023-07-02T13:28:58;11.52;;;6.18;;
41903;SDS011;27586;51.124;4.182;2023-07-02T13:31:23;11.20;;;5.90;;
41903;SDS011;27586;51.124;4.182;2023-07-02T13:33:49;10.90;;;6.20;;
41903;SDS011;27586;51.124;4.182;2023-07-02T13:36:15;10.88;;;5.93;;
41903;SDS011;27586;51.124;4.182;2023-07-02T13:38:41;10.43;;;5.65;;
41903;SDS011;27586;51.124;4.182;2023-07-02T13:41:07;11.27;;;5.82;;
41903;SDS011;27586;51.124;4.182;2023-07-02T13:43:33;9.82;;;5.68;;
41903;SDS011;27586;51.124;4.182;2023-07-02T13:45:59;9.32;;;5.70;;
41903;SDS011;27586;51.124;4.182;2023-07-02T13:48:25;8.90;;;5.35;;
41903;SDS011;27586;51.124;4.182;2023-07-02T13:50:51;13.15;;;6.40;;
41903;SDS011;27586;51.124;4.182;2023-07-02T13:53:16;10.32;;;5.50;;
41903;SDS011;27586;51.124;4.182;2023-07-02T13:55:42;10.00;;;5.93;;
41903;SDS011;27586;51.124;4.182;2023-07-02T13:58:08;10.52;;;5.72;;
41903;SDS011;27586;51.124;4.182;2023-07-02T14:00:33;11.60;;;5.90;;
41903;SDS011;27586;51.124;4.182;2023-07-02T14:02:59;11.00;;;5.78;;
41903;SDS011;27586;51.124;4.182;2023-07-02T14:05:25;12.73;;;6.18;;
41903;SDS011;27586;51.124;4.182;2023-07-02T14:07:50;9.90;;;5.28;;
41903;SDS011;27586;51.124;4.182;2023-07-02T14:10:16;9.68;;;5.43;;
41903;SDS011;27586;51.124;4.182;2023-07-02T14:12:42;10.35;;;5.65;;
41903;SDS011;27586;51.124;4.182;2023-07-02T14:15:08;8.10;;;5.45;;
41903;SDS011;27586;51.124;4.182;2023-07-02T14:17:35;10.95;;;6.05;;
41903;SDS011;27586;51.124;4.182;2023-07-02T14:20:01;10.63;;;5.47;;
41903;SDS011;27586;51.124;4.182;2023-07-02T14:22:29;10.45;;;5.50;;
41903;SDS011;27586;51.124;4.182;2023-07-02T14:24:54;9.85;;;5.45;;
41903;SDS011;27586;51.124;4.182;2023-07-02T14:27:20;11.98;;;5.30;;
41903;SDS011;27586;51.124;4.182;2023-07-02T14:29:46;10.65;;;5.38;;
41903;SDS011;27586;51.124;4.182;2023-07-02T14:32:12;12.02;;;6.03;;